Terminal Aerodrome Forecast
Issued by NWS

Home | Current Version | Previous Version | Graphics & Text | Print | Product List | Glossary On
Versions: 1 2 3 4 5 6 7 8 9 10 11 12 13
000
FTUS43 KICT 092300
TAFSLN
TAF
KSLN 092336Z 1000/1024 15014KT P6SM SCT150
     FM100300 13012KT P6SM VCTS SCT050 OVC090CB
      TEMPO 1003/1007 4SM TSRA BKN035CB
     FM101000 15012G20KT P6SM SCT100 BKN150
     FM101600 16019G27KT P6SM SCT150=

USA.gov is the U.S. government's official web portal to all federal, state and local government web resources and services.